createdAt,value
2022-12-08T00:02:02.917Z,7.57
2022-12-08T00:04:51.224Z,10.03
2022-12-08T00:07:38.037Z,13.43
2022-12-08T00:10:39.991Z,9.00
2022-12-08T00:12:55.971Z,7.73
2022-12-08T00:15:23.950Z,7.40
2022-12-08T00:17:51.926Z,7.87
2022-12-08T00:20:20.067Z,6.77
2022-12-08T00:22:49.413Z,10.70
2022-12-08T00:25:17.569Z,12.60
2022-12-08T00:27:45.574Z,12.40
2022-12-08T00:30:14.462Z,13.00
2022-12-08T00:32:42.407Z,10.70
2022-12-08T00:35:10.623Z,9.30
2022-12-08T00:37:38.609Z,12.00
2022-12-08T00:40:10.204Z,8.60
2022-12-08T00:42:38.224Z,7.70
2022-12-08T00:45:07.860Z,14.00
2022-12-08T00:47:35.854Z,11.40
2022-12-08T00:50:04.335Z,8.67
2022-12-08T00:52:32.477Z,12.63
2022-12-08T00:55:00.495Z,16.77
2022-12-08T00:57:29.837Z,14.80
2022-12-08T00:59:57.861Z,12.83
2022-12-08T01:02:26.080Z,10.07
2022-12-08T01:04:54.091Z,20.53
2022-12-08T01:07:22.053Z,8.87
2022-12-08T01:09:50.027Z,6.43
2022-12-08T01:12:18.027Z,9.03
2022-12-08T01:14:47.481Z,9.97
2022-12-08T01:17:15.469Z,10.70
2022-12-08T01:19:43.423Z,13.50
2022-12-08T01:22:11.393Z,10.87
2022-12-08T01:24:39.413Z,13.03
2022-12-08T01:27:07.488Z,14.17
2022-12-08T01:29:35.631Z,7.70
2022-12-08T01:32:05.371Z,10.03
2022-12-08T01:34:33.337Z,13.87
2022-12-08T01:37:01.385Z,10.37
2022-12-08T01:39:31.520Z,7.40
2022-12-08T01:41:59.475Z,25.07
2022-12-08T01:45:05.158Z,15.70
2022-12-08T01:47:39.524Z,13.03
2022-12-08T01:50:11.507Z,9.50
2022-12-08T01:52:42.394Z,12.13
2022-12-08T01:55:16.651Z,12.20
2022-12-08T01:57:48.623Z,13.30
2022-12-08T02:00:20.553Z,10.90
2022-12-08T02:02:56.517Z,11.27
2022-12-08T02:05:28.602Z,10.70
2022-12-08T02:07:58.423Z,8.27
2022-12-08T02:10:30.454Z,12.83
2022-12-08T02:12:59.988Z,22.00
2022-12-08T02:15:42.829Z,13.93
2022-12-08T02:18:29.677Z,11.53
2022-12-08T02:21:05.221Z,12.77
2022-12-08T02:23:45.269Z,6.67
2022-12-08T02:26:51.166Z,8.13
2022-12-08T02:30:03.715Z,8.50
2022-12-08T02:32:55.922Z,10.00
2022-12-08T02:35:32.391Z,13.60
2022-12-08T02:38:10.194Z,14.37
2022-12-08T02:40:50.845Z,9.80
2022-12-08T02:43:29.046Z,15.60
2022-12-08T02:46:02.308Z,12.10
2022-12-08T02:48:31.178Z,15.00
2022-12-08T02:51:00.466Z,10.73
2022-12-08T02:53:31.578Z,11.93
2022-12-08T02:56:09.026Z,12.63
2022-12-08T02:59:08.500Z,16.33
2022-12-08T03:02:10.271Z,7.73
2022-12-08T03:04:47.108Z,13.83
2022-12-08T03:07:26.146Z,9.70
2022-12-08T03:10:02.295Z,9.17
2022-12-08T03:12:41.128Z,12.80
2022-12-08T03:15:14.161Z,8.93
2022-12-08T03:17:47.360Z,7.97
2022-12-08T03:20:21.013Z,9.80
2022-12-08T03:22:53.862Z,12.60
2022-12-08T03:25:28.257Z,14.37
2022-12-08T03:27:56.258Z,11.40
2022-12-08T03:30:24.306Z,11.43
2022-12-08T03:32:57.351Z,14.60
2022-12-08T03:35:28.311Z,12.13
2022-12-08T03:38:05.849Z,7.97
2022-12-08T03:40:34.048Z,13.17
2022-12-08T03:43:02.122Z,9.33
2022-12-08T03:45:30.978Z,8.83
2022-12-08T03:47:58.979Z,14.10
2022-12-08T03:50:27.422Z,12.43
2022-12-08T03:52:55.401Z,15.90
2022-12-08T03:55:24.725Z,15.40
2022-12-08T03:57:52.699Z,18.50
2022-12-08T04:00:21.075Z,13.63
2022-12-08T04:02:49.128Z,7.60
2022-12-08T04:05:17.316Z,14.00
2022-12-08T04:07:45.357Z,12.80
2022-12-08T04:10:13.390Z,9.77
2022-12-08T04:12:42.683Z,11.40
2022-12-08T04:15:12.248Z,18.77
2022-12-08T04:17:40.246Z,19.20
2022-12-08T04:20:09.104Z,14.47
2022-12-08T04:22:37.075Z,16.53
2022-12-08T04:25:05.905Z,17.80
2022-12-08T04:27:35.626Z,15.90
2022-12-08T04:30:06.276Z,11.83
2022-12-08T04:32:34.410Z,15.07
2022-12-08T04:35:02.566Z,15.03
2022-12-08T04:37:30.563Z,11.27
2022-12-08T04:39:58.580Z,17.73
2022-12-08T04:42:26.556Z,12.70
2022-12-08T04:44:54.546Z,18.83
2022-12-08T04:47:23.838Z,17.13
2022-12-08T04:49:51.938Z,16.37
2022-12-08T04:52:19.893Z,15.50
2022-12-08T04:54:47.971Z,14.87
2022-12-08T04:57:16.007Z,16.27
2022-12-08T04:59:43.981Z,13.73
2022-12-08T05:02:13.351Z,15.20
2022-12-08T05:04:43.011Z,21.13
2022-12-08T05:07:10.970Z,15.83
2022-12-08T05:09:38.955Z,10.53
2022-12-08T05:12:07.768Z,14.87
2022-12-08T05:14:35.842Z,14.23
2022-12-08T05:17:09.300Z,12.60
2022-12-08T05:19:37.779Z,12.33
2022-12-08T05:22:07.117Z,13.30
2022-12-08T05:24:35.117Z,16.60
2022-12-08T05:27:03.140Z,18.13
2022-12-08T05:29:33.710Z,15.53
2022-12-08T05:32:01.763Z,19.73
2022-12-08T05:34:29.859Z,15.63
2022-12-08T05:36:57.803Z,13.10
2022-12-08T05:39:27.247Z,15.93
2022-12-08T05:41:55.249Z,13.40
2022-12-08T05:44:23.228Z,15.03
2022-12-08T05:46:51.212Z,12.90
2022-12-08T05:49:19.436Z,15.33
2022-12-08T05:51:47.451Z,12.07
2022-12-08T05:54:15.568Z,14.80
2022-12-08T05:56:44.886Z,10.77
2022-12-08T05:59:12.895Z,17.10
2022-12-08T06:01:43.905Z,14.43
2022-12-08T06:04:11.891Z,10.53
2022-12-08T06:06:39.887Z,12.20
2022-12-08T06:09:09.110Z,14.00
2022-12-08T06:11:37.156Z,10.97
2022-12-08T06:14:06.550Z,15.00
2022-12-08T06:16:34.532Z,8.53
2022-12-08T06:19:04.055Z,11.87
2022-12-08T06:21:32.000Z,15.90
2022-12-08T06:23:59.990Z,12.97
2022-12-08T06:26:29.953Z,12.03
2022-12-08T06:29:00.605Z,10.20
2022-12-08T06:31:29.987Z,11.30
2022-12-08T06:33:58.075Z,17.50
2022-12-08T06:36:28.460Z,16.33
2022-12-08T06:38:56.627Z,10.13
2022-12-08T06:41:25.272Z,14.37
2022-12-08T06:43:53.350Z,12.37
2022-12-08T06:46:21.901Z,13.80
2022-12-08T06:48:51.555Z,9.50
2022-12-08T06:51:22.683Z,16.50
2022-12-08T06:53:51.164Z,16.47
2022-12-08T06:56:20.472Z,16.03
2022-12-08T06:58:52.484Z,16.93
2022-12-08T07:01:21.241Z,11.70
2022-12-08T07:03:50.842Z,7.90
2022-12-08T07:06:23.075Z,15.10
2022-12-08T07:08:51.622Z,12.60
2022-12-08T07:11:21.836Z,12.40
2022-12-08T07:13:51.390Z,21.53
2022-12-08T07:16:19.605Z,9.23
2022-12-08T07:18:47.645Z,9.20
2022-12-08T07:21:18.141Z,9.10
2022-12-08T07:23:52.682Z,15.00
2022-12-08T07:26:25.584Z,11.80
2022-12-08T07:28:53.538Z,11.97
2022-12-08T07:31:23.798Z,11.60
2022-12-08T07:33:52.970Z,11.10
2022-12-08T07:36:23.076Z,16.83
2022-12-08T07:38:53.066Z,14.60
2022-12-08T07:41:23.833Z,7.63
2022-12-08T07:43:53.448Z,13.10
2022-12-08T07:46:23.860Z,12.37
2022-12-08T07:48:53.267Z,11.23
2022-12-08T07:51:22.924Z,10.07
2022-12-08T07:53:54.614Z,10.50
2022-12-08T07:56:23.525Z,14.23
2022-12-08T07:58:51.589Z,12.03
2022-12-08T08:01:25.002Z,16.17
2022-12-08T08:03:54.170Z,10.10
2022-12-08T08:06:24.119Z,14.97
2022-12-08T08:08:52.166Z,9.63
2022-12-08T08:11:21.636Z,11.57
2022-12-08T08:13:50.548Z,15.33
2022-12-08T08:16:19.958Z,9.10
2022-12-08T08:18:49.740Z,21.63
2022-12-08T08:24:08.964Z,12.73
2022-12-08T08:26:37.727Z,11.80
2022-12-08T08:29:05.837Z,12.63
2022-12-08T08:31:33.913Z,13.83
2022-12-08T08:34:06.024Z,12.73
2022-12-08T08:36:34.237Z,11.03
2022-12-08T08:39:02.299Z,9.20
2022-12-08T08:41:31.646Z,13.67
2022-12-08T08:43:59.712Z,11.43
2022-12-08T08:46:27.912Z,14.70
2022-12-08T08:48:56.058Z,11.17
2022-12-08T08:51:24.255Z,9.10
2022-12-08T08:53:55.008Z,13.73
2022-12-08T08:56:23.023Z,10.70
2022-12-08T08:58:54.690Z,12.83
2022-12-08T09:01:25.985Z,11.60
2022-12-08T09:03:54.946Z,12.53
2022-12-08T09:06:23.703Z,9.10
2022-12-08T09:08:52.144Z,9.07
2022-12-08T09:11:23.914Z,14.57
2022-12-08T09:13:54.949Z,12.37
2022-12-08T09:16:23.504Z,11.40
2022-12-08T09:18:51.819Z,12.93
2022-12-08T09:21:23.769Z,12.47
2022-12-08T09:23:53.840Z,8.60
2022-12-08T09:26:22.570Z,14.20
2022-12-08T09:28:50.795Z,14.13
2022-12-08T09:31:24.497Z,21.70
2022-12-08T09:33:52.591Z,17.17
2022-12-08T09:36:21.119Z,11.60
2022-12-08T09:38:51.005Z,12.63
2022-12-08T09:41:27.340Z,18.33
2022-12-08T09:44:12.179Z,9.30
2022-12-08T09:46:43.448Z,32.97
2022-12-08T09:49:16.723Z,8.87
2022-12-08T09:51:46.251Z,14.80
2022-12-08T09:54:20.835Z,38.83
2022-12-08T09:56:52.546Z,21.33
2022-12-08T09:59:26.866Z,15.30
2022-12-08T10:01:56.582Z,12.20
2022-12-08T10:04:31.965Z,8.90
2022-12-08T10:07:07.755Z,7.83
2022-12-08T10:09:43.075Z,11.73
2022-12-08T10:12:23.227Z,10.30
2022-12-08T10:15:01.299Z,10.93
2022-12-08T10:17:48.338Z,11.30
2022-12-08T10:20:20.957Z,14.03
2022-12-08T10:22:53.088Z,5.13
2022-12-08T10:25:24.515Z,6.50
2022-12-08T10:27:55.274Z,3.50
2022-12-08T10:30:23.852Z,4.17
2022-12-08T10:32:55.354Z,6.23
2022-12-08T10:35:25.290Z,13.37
2022-12-08T10:37:58.386Z,6.70
2022-12-08T10:40:30.504Z,6.03
2022-12-08T10:43:00.690Z,6.43
2022-12-08T10:45:31.319Z,5.53
2022-12-08T10:48:05.957Z,7.30
2022-12-08T10:50:37.283Z,4.50
2022-12-08T10:53:15.259Z,7.50
2022-12-08T10:55:46.514Z,5.60
2022-12-08T10:58:35.529Z,5.73
2022-12-08T11:01:11.829Z,3.70
2022-12-08T11:03:49.900Z,4.73
2022-12-08T11:06:21.138Z,8.30
2022-12-08T11:08:53.080Z,6.23
2022-12-08T11:11:29.189Z,9.23
2022-12-08T11:13:57.677Z,3.30
2022-12-08T11:16:26.080Z,13.20
2022-12-08T11:18:59.412Z,8.77
2022-12-08T11:21:37.754Z,7.37
2022-12-08T11:24:23.815Z,7.23
2022-12-08T11:26:56.227Z,5.50
2022-12-08T11:29:24.557Z,5.60
2022-12-08T11:31:58.219Z,5.33
2022-12-08T11:34:37.187Z,5.00
2022-12-08T11:37:08.166Z,8.27
2022-12-08T11:39:41.162Z,6.23
2022-12-08T11:42:14.202Z,6.63
2022-12-08T11:44:50.590Z,3.73
2022-12-08T11:47:23.637Z,3.10
2022-12-08T11:49:56.763Z,4.10
2022-12-08T11:52:35.110Z,3.97
2022-12-08T11:55:16.417Z,6.40
2022-12-08T11:57:46.029Z,3.37
2022-12-08T12:00:18.848Z,2.80
2022-12-08T12:02:55.488Z,4.40
2022-12-08T12:06:08.651Z,3.57
2022-12-08T12:08:43.946Z,6.00
2022-12-08T12:11:36.570Z,2.73
2022-12-08T12:14:19.433Z,6.43
2022-12-08T12:17:02.670Z,5.50
2022-12-08T12:19:36.110Z,2.43
2022-12-08T12:22:15.966Z,4.10
2022-12-08T12:24:47.744Z,2.20
2022-12-08T12:27:28.712Z,5.00
2022-12-08T12:30:01.205Z,4.20
2022-12-08T12:32:44.734Z,3.00
2022-12-08T12:35:27.042Z,4.73
2022-12-08T12:38:03.981Z,7.67
2022-12-08T12:40:41.982Z,2.77
2022-12-08T12:43:31.246Z,2.90
2022-12-08T12:46:39.313Z,3.53
2022-12-08T12:49:51.780Z,8.00
2022-12-08T12:52:49.307Z,2.80
2022-12-08T12:55:51.944Z,2.10
2022-12-08T12:58:40.854Z,2.73
2022-12-08T13:01:39.425Z,2.17
2022-12-08T13:04:09.488Z,2.40
2022-12-08T13:06:43.113Z,17.20
2022-12-08T13:09:29.155Z,7.70
2022-12-08T13:12:02.138Z,1.90
2022-12-08T13:14:34.388Z,14.70
2022-12-08T13:17:07.035Z,3.23
2022-12-08T13:19:39.703Z,3.43
2022-12-08T13:23:02.390Z,3.73
2022-12-08T13:25:56.546Z,5.73
2022-12-08T13:28:30.140Z,7.07
2022-12-08T13:31:00.505Z,4.73
2022-12-08T13:33:39.215Z,11.27
2022-12-08T13:36:22.555Z,2.90
2022-12-08T13:38:57.035Z,2.00
2022-12-08T13:41:38.717Z,1.70
2022-12-08T13:58:41.047Z,1.77
2022-12-08T14:01:15.642Z,2.50
2022-12-08T14:04:22.132Z,2.00
2022-12-08T14:06:47.164Z,3.43
2022-12-08T14:09:18.594Z,5.60
2022-12-08T14:11:52.565Z,1.40
2022-12-08T14:14:53.945Z,1.90
2022-12-08T14:17:16.514Z,2.37
2022-12-08T14:19:46.678Z,1.60
2022-12-08T14:22:19.046Z,3.07
2022-12-08T14:24:48.698Z,1.90
2022-12-08T14:27:18.910Z,2.93
2022-12-08T14:29:49.825Z,1.63
2022-12-08T14:32:26.938Z,1.37
2022-12-08T14:35:02.342Z,2.50
2022-12-08T14:37:33.778Z,2.20
2022-12-08T14:40:07.510Z,1.80
2022-12-08T14:42:45.626Z,2.07
2022-12-08T14:45:16.371Z,2.20
2022-12-08T14:47:46.927Z,1.70
2022-12-08T14:50:39.674Z,2.20
2022-12-08T14:53:14.845Z,1.43
2022-12-08T14:55:45.452Z,3.97
2022-12-08T14:58:20.186Z,1.60
2022-12-08T15:00:51.432Z,1.70
2022-12-08T15:03:23.567Z,4.70
2022-12-08T15:05:56.429Z,2.47
2022-12-08T15:08:24.668Z,2.20
2022-12-08T15:11:16.402Z,2.10
2022-12-08T15:13:52.869Z,3.30
2022-12-08T15:16:28.067Z,2.10
2022-12-08T15:19:23.155Z,1.57
2022-12-08T15:21:51.651Z,4.37
2022-12-08T15:24:22.885Z,1.77
2022-12-08T15:26:52.511Z,3.30
2022-12-08T15:29:23.566Z,2.00
2022-12-08T15:31:53.396Z,2.00
2022-12-08T15:34:23.550Z,1.90
2022-12-08T15:36:53.557Z,2.07
2022-12-08T15:39:34.587Z,1.53
2022-12-08T15:42:03.862Z,1.90
2022-12-08T15:44:32.902Z,3.90
2022-12-08T15:47:02.076Z,1.43
2022-12-08T15:49:31.714Z,1.60
2022-12-08T15:52:10.825Z,1.70
2022-12-08T15:54:39.965Z,3.83
2022-12-08T15:57:19.497Z,1.70
2022-12-08T15:59:50.816Z,1.67
2022-12-08T16:02:22.547Z,8.10
2022-12-08T16:07:41.538Z,2.07
2022-12-08T16:10:15.704Z,2.73
2022-12-08T16:15:59.316Z,7.27
2022-12-08T16:18:32.183Z,4.03
2022-12-08T16:21:41.903Z,3.07
2022-12-08T16:23:50.063Z,2.10
2022-12-08T16:27:06.895Z,4.00
2022-12-08T16:29:20.659Z,3.07
2022-12-08T16:31:49.352Z,5.80
2022-12-08T16:34:17.651Z,7.23
2022-12-08T16:36:46.983Z,4.20
2022-12-08T16:39:15.263Z,3.90
2022-12-08T16:42:01.336Z,3.77
2022-12-08T16:44:29.405Z,5.30
2022-12-08T16:46:57.398Z,4.13
2022-12-08T16:49:25.403Z,4.67
2022-12-08T16:51:54.988Z,2.93
2022-12-08T16:54:22.993Z,7.80
2022-12-08T16:56:51.046Z,2.03
2022-12-08T16:59:19.167Z,3.40
2022-12-08T17:01:47.132Z,3.73
2022-12-08T17:04:33.393Z,2.57
2022-12-08T17:07:02.803Z,2.53
2022-12-08T17:09:32.552Z,3.60
2022-12-08T17:12:04.120Z,5.73
2022-12-08T17:14:35.355Z,7.30
2022-12-08T17:17:03.521Z,2.27
2022-12-08T17:19:31.698Z,4.40
2022-12-08T17:21:59.935Z,4.10
2022-12-08T17:24:30.040Z,3.30
2022-12-08T17:26:59.955Z,3.63
2022-12-08T17:29:28.084Z,4.20
2022-12-08T17:31:56.292Z,2.80
2022-12-08T17:34:24.478Z,4.57
2022-12-08T17:36:52.934Z,2.83
2022-12-08T17:39:21.053Z,4.93
2022-12-08T17:41:50.483Z,5.90
2022-12-08T17:44:20.678Z,5.63
2022-12-08T17:46:52.858Z,3.50
2022-12-08T17:49:24.520Z,7.33
2022-12-08T17:51:55.042Z,2.73
2022-12-08T17:54:23.183Z,3.03
2022-12-08T17:56:53.249Z,5.30
2022-12-08T17:59:21.319Z,3.83
2022-12-08T18:01:49.375Z,4.70
2022-12-08T18:04:17.410Z,2.47
2022-12-08T18:06:46.304Z,3.80
2022-12-08T18:09:15.809Z,3.30
2022-12-08T18:11:46.054Z,3.37
2022-12-08T18:14:16.808Z,2.37
2022-12-08T18:16:47.410Z,4.17
2022-12-08T18:19:16.634Z,2.57
2022-12-08T18:21:45.189Z,8.53
2022-12-08T18:24:21.961Z,2.57
2022-12-08T18:26:52.223Z,2.83
2022-12-08T18:29:23.583Z,3.47
2022-12-08T18:31:52.925Z,5.00
2022-12-08T18:34:21.104Z,2.43
2022-12-08T18:36:49.451Z,2.50
2022-12-08T18:39:24.265Z,3.57
2022-12-08T18:41:53.055Z,11.20
2022-12-08T18:44:22.570Z,4.67
2022-12-08T18:46:50.737Z,2.60
2022-12-08T18:49:20.578Z,3.27
2022-12-08T18:51:48.873Z,2.10
2022-12-08T18:54:16.967Z,2.93
2022-12-08T18:56:44.972Z,9.90
2022-12-08T18:59:13.984Z,3.23
2022-12-08T19:01:43.576Z,2.43
2022-12-08T19:04:28.755Z,2.83
2022-12-08T19:06:58.349Z,1.90
2022-12-08T19:09:28.844Z,3.70
2022-12-08T19:11:57.861Z,2.17
2022-12-08T19:14:28.387Z,2.50
2022-12-08T19:16:58.734Z,1.60
2022-12-08T19:19:28.908Z,2.47
2022-12-08T19:21:59.898Z,3.80
2022-12-08T19:24:28.904Z,4.20
2022-12-08T19:26:56.927Z,2.67
2022-12-08T19:29:25.082Z,4.57
2022-12-08T19:31:54.986Z,6.10
2022-12-08T19:34:26.580Z,24.10
2022-12-08T19:36:54.926Z,15.10
2022-12-08T19:39:42.294Z,4.30
2022-12-08T19:42:34.238Z,2.83
2022-12-08T19:45:11.933Z,4.67
2022-12-08T19:47:40.646Z,3.40
2022-12-08T19:50:30.957Z,2.43
2022-12-08T19:53:00.444Z,3.23
2022-12-08T19:55:30.513Z,8.33
2022-12-08T19:57:59.661Z,19.47
2022-12-08T20:00:28.315Z,8.10
2022-12-08T20:02:58.188Z,5.10
2022-12-08T20:05:29.067Z,5.43
2022-12-08T20:07:57.672Z,3.23
2022-12-08T20:10:29.603Z,3.90
2022-12-08T20:13:18.006Z,5.80
2022-12-08T20:15:47.667Z,3.70
2022-12-08T20:18:18.344Z,3.83
2022-12-08T20:20:49.318Z,3.70
2022-12-08T20:23:19.016Z,4.93
2022-12-08T20:25:47.836Z,4.47
2022-12-08T20:28:16.205Z,6.23
2022-12-08T20:30:47.267Z,2.87
2022-12-08T20:33:20.164Z,7.90
2022-12-08T20:35:59.624Z,3.30
2022-12-08T20:38:27.849Z,7.40
2022-12-08T20:40:57.695Z,8.07
2022-12-08T20:43:25.899Z,4.40
2022-12-08T20:45:54.035Z,4.53
2022-12-08T20:48:22.162Z,3.77
2022-12-08T20:50:53.234Z,5.07
2022-12-08T20:53:21.292Z,5.50
2022-12-08T20:55:49.417Z,7.33
2022-12-08T20:58:17.544Z,6.53
2022-12-08T21:00:46.842Z,4.70
2022-12-08T21:03:17.408Z,4.20
2022-12-08T21:05:50.300Z,4.30
2022-12-08T21:08:20.701Z,5.23
2022-12-08T21:10:55.048Z,8.80
2022-12-08T21:13:23.289Z,4.23
2022-12-08T21:15:51.503Z,4.53
2022-12-08T21:18:19.685Z,5.90
2022-12-08T21:20:48.771Z,5.30
2022-12-08T21:23:18.949Z,7.47
2022-12-08T21:25:48.626Z,4.40
2022-12-08T21:28:16.783Z,4.27
2022-12-08T21:30:45.024Z,6.77
2022-12-08T21:33:15.001Z,2.97
2022-12-08T21:35:43.179Z,7.93
2022-12-08T21:38:11.503Z,4.50
2022-12-08T21:40:40.935Z,4.43
2022-12-08T21:43:09.033Z,4.93
2022-12-08T21:45:37.127Z,7.67
2022-12-08T21:48:11.410Z,10.53
2022-12-08T21:50:40.041Z,3.83
2022-12-08T21:53:08.121Z,8.50
2022-12-08T21:55:36.189Z,4.77
2022-12-08T21:58:08.157Z,3.53
2022-12-08T22:00:36.352Z,6.40
2022-12-08T22:03:05.392Z,8.03
2022-12-08T22:05:34.104Z,3.80
2022-12-08T22:08:02.542Z,6.13
2022-12-08T22:10:30.618Z,3.47
2022-12-08T22:12:58.867Z,7.43
2022-12-08T22:15:29.801Z,4.67
2022-12-08T22:17:58.254Z,9.00
2022-12-08T22:20:28.520Z,3.97
2022-12-08T22:22:57.592Z,7.50
2022-12-08T22:25:25.711Z,5.33
2022-12-08T22:27:53.912Z,3.37
2022-12-08T22:30:22.188Z,7.60
2022-12-08T22:32:51.644Z,4.30
2022-12-08T22:35:19.633Z,5.20
2022-12-08T22:37:49.285Z,3.70
2022-12-08T22:40:17.535Z,4.80
2022-12-08T22:42:45.819Z,7.50
2022-12-08T22:45:13.938Z,3.80
2022-12-08T22:47:41.990Z,7.90
2022-12-08T22:50:12.465Z,4.07
2022-12-08T22:52:40.459Z,4.57
2022-12-08T22:55:09.965Z,6.17
2022-12-08T22:57:38.246Z,8.60
2022-12-08T23:00:11.290Z,7.60
2022-12-08T23:02:40.036Z,5.60
2022-12-08T23:05:09.384Z,10.10
2022-12-08T23:07:40.290Z,11.63
2022-12-08T23:10:11.040Z,7.07
2022-12-08T23:12:39.307Z,6.27
2022-12-08T23:15:09.187Z,4.17
2022-12-08T23:17:37.442Z,6.27
2022-12-08T23:20:09.719Z,4.53
2022-12-08T23:22:39.402Z,10.97
2022-12-08T23:25:09.098Z,5.10
2022-12-08T23:27:38.251Z,5.03
2022-12-08T23:30:08.602Z,3.33
2022-12-08T23:32:37.098Z,4.67
2022-12-08T23:35:06.095Z,6.47
2022-12-08T23:37:34.255Z,6.20
2022-12-08T23:40:04.148Z,4.60
2022-12-08T23:42:32.514Z,5.93
2022-12-08T23:45:00.493Z,4.30
2022-12-08T23:47:28.538Z,5.27
2022-12-08T23:49:56.624Z,7.57
2022-12-08T23:52:24.859Z,11.70
2022-12-08T23:54:54.618Z,4.93
2022-12-08T23:57:24.055Z,4.80
2022-12-08T23:59:52.044Z,4.77
